Current Weather

Imperial County

Imperial, California (KIPL)

Report from: Sunday, June 26, 2022 8:53 AM PDT
Current time: Sunday, June 26, 2022 9:25 AM PDT

Nearby weather
Weather history
Weather forecast

Temperature32.2°C (90.0°F)
Heat index36.3°C (97.3°F)
Dew point22.2°C (72.0°F)
Winds 10 kts (5.1 m/s, 11.5 mph) South-Southeast (160°)
Visibility10 mi. (16.1 km)
Clouds Sky clear
Altimeter29.91 in.Hg (1013 mB)
Relative humidity56 %
Density altitude2,335 ft. (712 m)
Sea-level pressure101.3 kPa (1013 mB, 29.91 in.Hg)
Remarks Fully automated report
Automated weather observing station with precipitation discriminator
Flight conditions Visual Meteorological Conditions
Raw dataKIPL 261553Z AUTO 16010KT 10SM CLR 32/22 A2991 RMK AO2 SLP130 T03220222
An error has occurred. This application may no longer respond until reloaded. Reload 🗙